Time;durP1;ratioP1;P1;durP2;ratioP2;P2;SDS_P1;SDS_P2;PMS_P1;PMS_P2;Temp;Humidity;BMP_temperature;BMP_pressure;BME280_temperature;BME280_humidity;BME280_pressure;Samples;Min_cycle;Max_cycle;Signal;HPM_P1;HPM_P2
2021/01/26 00:02:18;;;;;;;43.42;38.08;;;;;;;;;;5097804;28;20601;-83
2021/01/26 00:04:45;;;;;;;46.90;41.85;;;;;;;;;;5094357;28;20207;-83
2021/01/26 00:07:12;;;;;;;57.90;46.58;;;;;;;;;;5094565;28;20608;-83
2021/01/26 00:09:39;;;;;;;50.00;41.92;;;;;;;;;;5093880;28;20190;-84
2021/01/26 00:12:08;;;;;;;46.13;41.13;;;;;;;;;;5094003;28;20272;-83
2021/01/26 00:14:36;;;;;;;42.58;37.95;;;;;;;;;;5094869;28;20202;-84
2021/01/26 00:17:03;;;;;;;54.13;43.38;;;;;;;;;;5094808;28;20198;-84
2021/01/26 00:19:30;;;;;;;47.60;41.38;;;;;;;;;;5094616;28;20187;-83
2021/01/26 00:21:56;;;;;;;41.78;37.58;;;;;;;;;;5094010;28;20198;-84
2021/01/26 00:24:23;;;;;;;60.72;46.47;;;;;;;;;;5100183;28;20194;-84
2021/01/26 00:26:50;;;;;;;52.65;44.95;;;;;;;;;;5097608;28;20207;-83
2021/01/26 00:29:17;;;;;;;53.50;41.63;;;;;;;;;;5098458;28;20270;-83
2021/01/26 00:31:45;;;;;;;53.53;45.97;;;;;;;;;;5097756;28;20215;-83
2021/01/26 00:34:12;;;;;;;51.05;45.35;;;;;;;;;;5080090;28;20256;-83
2021/01/26 00:36:39;;;;;;;36.88;33.45;;;;;;;;;;5097832;28;20195;-83
2021/01/26 00:39:06;;;;;;;56.47;48.38;;;;;;;;;;5096845;28;20226;-84
2021/01/26 00:41:33;;;;;;;48.33;43.20;;;;;;;;;;5098598;28;20195;-83
2021/01/26 00:44:00;;;;;;;53.58;45.72;;;;;;;;;;5097480;28;20213;-83
2021/01/26 00:46:27;;;;;;;50.00;40.97;;;;;;;;;;5098374;28;20231;-83
2021/01/26 00:48:55;;;;;;;39.58;35.97;;;;;;;;;;5098279;28;20244;-83
2021/01/26 00:51:21;;;;;;;57.40;48.25;;;;;;;;;;5101534;28;20704;-83
2021/01/26 00:53:48;;;;;;;48.85;43.38;;;;;;;;;;5101490;28;20221;-83
2021/01/26 00:56:15;;;;;;;54.50;44.15;;;;;;;;;;5096659;28;20187;-83
2021/01/26 00:58:42;;;;;;;54.35;46.20;;;;;;;;;;5096215;28;20187;-83
2021/01/26 01:01:09;;;;;;;45.15;40.35;;;;;;;;;;5096481;28;20191;-83
2021/01/26 01:03:36;;;;;;;49.15;44.03;;;;;;;;;;5096071;28;20183;-83
2021/01/26 01:06:04;;;;;;;51.38;45.58;;;;;;;;;;5096174;28;20241;-83
2021/01/26 01:08:31;;;;;;;44.50;39.85;;;;;;;;;;5095944;28;20212;-83
2021/01/26 01:10:58;;;;;;;47.38;42.67;;;;;;;;;;5078169;28;20540;-83
2021/01/26 01:13:25;;;;;;;50.33;44.50;;;;;;;;;;5095865;28;20282;-83
2021/01/26 01:15:52;;;;;;;48.97;43.70;;;;;;;;;;5096115;28;20188;-83
2021/01/26 01:18:18;;;;;;;51.28;45.65;;;;;;;;;;5096270;28;20564;-83
2021/01/26 01:20:45;;;;;;;47.97;43.20;;;;;;;;;;5095774;28;20660;-83
2021/01/26 01:23:13;;;;;;;51.25;45.90;;;;;;;;;;5099821;28;20213;-83
2021/01/26 01:25:40;;;;;;;404.10;111.30;;;;;;;;;;5095703;28;20207;-83
2021/01/26 01:28:07;;;;;;;51.10;46.03;;;;;;;;;;5095565;28;20183;-82
2021/01/26 01:30:35;;;;;;;52.95;47.55;;;;;;;;;;5095958;28;20190;-83
2021/01/26 01:33:03;;;;;;;40.75;37.22;;;;;;;;;;5095467;28;20222;-83
2021/01/26 01:35:30;;;;;;;49.65;44.45;;;;;;;;;;5095388;28;20187;-83
2021/01/26 01:37:57;;;;;;;51.30;45.97;;;;;;;;;;5095299;28;20239;-83
2021/01/26 01:40:26;;;;;;;41.88;37.53;;;;;;;;;;5095840;28;20186;-83
2021/01/26 01:42:53;;;;;;;51.03;45.47;;;;;;;;;;5095866;28;20191;-84
2021/01/26 01:45:22;;;;;;;47.72;42.78;;;;;;;;;;5095482;28;20238;-83
2021/01/26 01:47:52;;;;;;;42.85;38.40;;;;;;;;;;5096221;28;20191;-83
2021/01/26 01:50:21;;;;;;;45.25;41.08;;;;;;;;;;5078523;28;20210;-83
2021/01/26 01:52:52;;;;;;;47.92;42.97;;;;;;;;;;5096232;28;20257;-84
2021/01/26 01:55:20;;;;;;;49.38;44.00;;;;;;;;;;5096154;28;20210;-83
2021/01/26 01:57:51;;;;;;;50.22;44.97;;;;;;;;;;5095482;28;20195;-83
2021/01/26 02:00:19;;;;;;;47.85;43.22;;;;;;;;;;5095182;28;20290;-83
2021/01/26 02:02:50;;;;;;;46.40;41.92;;;;;;;;;;5077625;28;20215;-83
2021/01/26 02:05:17;;;;;;;50.10;44.50;;;;;;;;;;5096697;28;20187;-83
2021/01/26 02:07:45;;;;;;;41.60;37.25;;;;;;;;;;5098121;28;20183;-84
2021/01/26 02:10:12;;;;;;;48.75;43.50;;;;;;;;;;5097202;28;20597;-83
2021/01/26 02:12:39;;;;;;;52.63;47.25;;;;;;;;;;5094746;28;20226;-84
2021/01/26 02:15:08;;;;;;;45.90;41.40;;;;;;;;;;5094933;28;20191;-83
2021/01/26 02:17:46;;;;;;;49.45;44.30;;;;;;;;;;5095229;28;20236;-83
2021/01/26 02:20:28;;;;;;;51.85;46.42;;;;;;;;;;5094473;28;20597;-83
2021/01/26 02:23:18;;;;;;;49.47;44.60;;;;;;;;;;5094598;28;20633;-82
2021/01/26 02:26:07;;;;;;;54.22;48.25;;;;;;;;;;5094914;28;20195;-83
2021/01/26 02:28:46;;;;;;;52.42;47.80;;;;;;;;;;5094686;28;20198;-83
2021/01/26 02:31:23;;;;;;;51.47;46.47;;;;;;;;;;5097326;28;20203;-83
2021/01/26 02:34:02;;;;;;;57.15;51.25;;;;;;;;;;5094677;28;20187;-83
2021/01/26 02:36:52;;;;;;;52.88;47.65;;;;;;;;;;5094597;28;20630;-83
2021/01/26 02:39:34;;;;;;;55.15;49.40;;;;;;;;;;5094424;28;20633;-83
2021/01/26 02:42:11;;;;;;;51.55;43.72;;;;;;;;;;5091248;28;20202;-82
2021/01/26 02:44:45;;;;;;;52.65;47.00;;;;;;;;;;5093950;28;20544;-82
2021/01/26 02:47:16;;;;;;;42.78;39.63;;;;;;;;;;5054018;28;20238;-83
2021/01/26 02:49:48;;;;;;;39.90;36.85;;;;;;;;;;5054027;28;20559;-83
2021/01/26 02:52:16;;;;;;;46.80;42.58;;;;;;;;;;5052704;28;20238;-82
2021/01/26 02:54:49;;;;;;;53.25;47.67;;;;;;;;;;5054310;28;20188;-82
2021/01/26 02:57:19;;;;;;;50.63;46.10;;;;;;;;;;5053021;28;20200;-82
2021/01/26 02:59:49;;;;;;;45.80;41.92;;;;;;;;;;5054062;28;20262;-83
2021/01/26 03:02:18;;;;;;;40.28;37.17;;;;;;;;;;5052808;28;20588;-82
2021/01/26 03:04:47;;;;;;;46.20;42.05;;;;;;;;;;5054081;28;20184;-83
2021/01/26 03:07:15;;;;;;;42.13;38.17;;;;;;;;;;5053732;28;20533;-83
2021/01/26 03:09:44;;;;;;;46.90;42.50;;;;;;;;;;5052417;28;20192;-82
2021/01/26 03:12:15;;;;;;;44.40;40.42;;;;;;;;;;5053508;28;20221;-84
2021/01/26 03:14:45;;;;;;;42.15;38.80;;;;;;;;;;5053977;28;20269;-83
2021/01/26 03:17:15;;;;;;;44.15;40.35;;;;;;;;;;5054091;28;20639;-83
2021/01/26 03:19:45;;;;;;;39.03;35.83;;;;;;;;;;5053869;28;20553;-83
2021/01/26 03:22:13;;;;;;;43.55;38.90;;;;;;;;;;5053643;28;20192;-83
2021/01/26 03:24:40;;;;;;;39.78;36.50;;;;;;;;;;5053947;28;20191;-83
2021/01/26 03:27:09;;;;;;;37.42;34.28;;;;;;;;;;5053886;28;20197;-83
2021/01/26 03:29:38;;;;;;;42.95;38.95;;;;;;;;;;5053694;28;20239;-83
2021/01/26 03:32:10;;;;;;;40.40;37.08;;;;;;;;;;5053694;28;20215;-83
2021/01/26 03:34:37;;;;;;;39.00;35.90;;;;;;;;;;5053897;28;20192;-83
2021/01/26 03:37:04;;;;;;;40.25;37.10;;;;;;;;;;5053441;28;20189;-83
2021/01/26 03:39:31;;;;;;;40.17;36.88;;;;;;;;;;5053348;28;20200;-83
2021/01/26 03:41:59;;;;;;;37.80;34.70;;;;;;;;;;5053904;28;20206;-83
2021/01/26 03:44:26;;;;;;;36.67;33.88;;;;;;;;;;5053493;28;20184;-83
2021/01/26 03:47:08;;;;;;;40.42;36.65;;;;;;;;;;5090400;28;20280;-83
2021/01/26 03:49:43;;;;;;;40.58;36.92;;;;;;;;;;5055371;28;20251;-83
2021/01/26 03:52:15;;;;;;;36.70;33.78;;;;;;;;;;5058980;28;20236;-83
2021/01/26 03:54:44;;;;;;;37.10;33.70;;;;;;;;;;5093689;28;20192;-83
2021/01/26 03:57:21;;;;;;;32.50;30.17;;;;;;;;;;5095439;28;20183;-84
2021/01/26 03:59:56;;;;;;;37.25;34.35;;;;;;;;;;5097644;28;20183;-83
2021/01/26 04:02:25;;;;;;;30.08;27.98;;;;;;;;;;5097608;28;20513;-83
2021/01/26 04:04:57;;;;;;;32.90;30.15;;;;;;;;;;5097837;28;20210;-83
2021/01/26 04:07:29;;;;;;;32.85;30.33;;;;;;;;;;5079256;28;20560;-83
2021/01/26 04:09:59;;;;;;;28.40;26.50;;;;;;;;;;5097577;28;20198;-83
2021/01/26 04:12:27;;;;;;;31.42;29.20;;;;;;;;;;5097381;28;20277;-83
2021/01/26 04:14:57;;;;;;;28.50;27.00;;;;;;;;;;5100150;28;20641;-83
2021/01/26 04:17:28;;;;;;;30.05;28.15;;;;;;;;;;5097188;28;20187;-83
2021/01/26 04:19:58;;;;;;;27.38;25.77;;;;;;;;;;5097207;28;20539;-84
2021/01/26 04:22:25;;;;;;;32.80;30.35;;;;;;;;;;5097094;28;20187;-83
2021/01/26 04:24:52;;;;;;;32.83;30.50;;;;;;;;;;5096894;28;20632;-83
2021/01/26 04:27:21;;;;;;;34.15;31.35;;;;;;;;;;5097042;28;20186;-83
2021/01/26 04:29:48;;;;;;;33.45;31.25;;;;;;;;;;5097242;28;20187;-83
2021/01/26 04:32:15;;;;;;;31.77;29.42;;;;;;;;;;5096962;28;20730;-83
2021/01/26 04:34:42;;;;;;;30.90;28.98;;;;;;;;;;5096738;28;20194;-84
2021/01/26 04:37:10;;;;;;;34.15;31.63;;;;;;;;;;5097040;28;20214;-83
2021/01/26 04:39:37;;;;;;;32.45;30.25;;;;;;;;;;5096682;28;20190;-83
2021/01/26 04:42:05;;;;;;;30.70;28.70;;;;;;;;;;5097091;28;20190;-83
2021/01/26 04:44:37;;;;;;;31.45;29.45;;;;;;;;;;5097257;28;20194;-82
2021/01/26 04:47:11;;;;;;;32.28;30.15;;;;;;;;;;5075502;28;20223;-83
2021/01/26 04:49:42;;;;;;;32.45;30.13;;;;;;;;;;5076971;28;20559;-82
2021/01/26 04:52:12;;;;;;;32.65;30.10;;;;;;;;;;5076989;28;20276;-83
2021/01/26 04:54:49;;;;;;;31.38;29.30;;;;;;;;;;5077558;28;20203;-83
2021/01/26 04:57:36;;;;;;;31.15;29.00;;;;;;;;;;5078215;28;20210;-83
2021/01/26 05:00:09;;;;;;;29.30;27.60;;;;;;;;;;5077595;28;20226;-83
2021/01/26 05:02:41;;;;;;;31.40;29.50;;;;;;;;;;5078137;28;20240;-83
2021/01/26 05:05:10;;;;;;;31.90;29.48;;;;;;;;;;5076181;28;20191;-83
2021/01/26 05:07:43;;;;;;;29.95;28.02;;;;;;;;;;5075915;28;20188;-83
2021/01/26 05:10:13;;;;;;;30.33;28.05;;;;;;;;;;5075608;28;20195;-83
2021/01/26 05:12:43;;;;;;;31.95;29.65;;;;;;;;;;5076284;28;20223;-83
2021/01/26 05:15:14;;;;;;;28.60;26.90;;;;;;;;;;5075814;28;20194;-82
2021/01/26 05:17:43;;;;;;;31.75;29.55;;;;;;;;;;5075775;28;20195;-83
2021/01/26 05:20:13;;;;;;;31.38;29.05;;;;;;;;;;5075778;28;20336;-84
2021/01/26 05:22:44;;;;;;;30.80;28.67;;;;;;;;;;5076282;28;20200;-83
2021/01/26 05:25:14;;;;;;;30.05;27.90;;;;;;;;;;5091524;28;20199;-83
2021/01/26 05:27:41;;;;;;;28.70;26.90;;;;;;;;;;5092722;28;20203;-83
2021/01/26 05:30:10;;;;;;;28.90;26.85;;;;;;;;;;5099057;28;20188;-84
2021/01/26 05:32:37;;;;;;;30.63;28.52;;;;;;;;;;5084542;28;20234;-83
2021/01/26 05:35:05;;;;;;;29.95;27.77;;;;;;;;;;5074363;28;20207;-83
2021/01/26 05:37:33;;;;;;;30.08;28.08;;;;;;;;;;5074723;28;20752;-83
2021/01/26 05:40:04;;;;;;;31.00;28.60;;;;;;;;;;5074838;28;20188;-83
2021/01/26 05:42:32;;;;;;;29.55;27.38;;;;;;;;;;5076255;28;20187;-83
2021/01/26 05:45:00;;;;;;;26.23;24.67;;;;;;;;;;5078030;28;20625;-83
2021/01/26 05:47:28;;;;;;;24.70;23.10;;;;;;;;;;5095770;28;20190;-83
2021/01/26 05:49:55;;;;;;;27.70;25.83;;;;;;;;;;5095738;28;20528;-83
2021/01/26 05:52:23;;;;;;;28.05;25.38;;;;;;;;;;5095628;28;20219;-84
2021/01/26 05:54:52;;;;;;;26.90;25.10;;;;;;;;;;5095098;28;20192;-84
2021/01/26 05:57:27;;;;;;;26.75;25.05;;;;;;;;;;5095254;28;20667;-84
2021/01/26 06:00:12;;;;;;;25.88;24.17;;;;;;;;;;5095027;28;20299;-84
2021/01/26 06:02:39;;;;;;;28.20;26.23;;;;;;;;;;5095473;28;20245;-84
2021/01/26 06:05:07;;;;;;;26.08;24.25;;;;;;;;;;5095348;28;20187;-84
2021/01/26 06:07:34;;;;;;;27.02;25.02;;;;;;;;;;5095254;28;20191;-84
2021/01/26 06:10:15;;;;;;;25.63;23.80;;;;;;;;;;5094935;28;20195;-84
2021/01/26 06:12:51;;;;;;;25.98;24.02;;;;;;;;;;5094985;28;20219;-83
2021/01/26 06:15:22;;;;;;;26.63;24.58;;;;;;;;;;5094736;28;20195;-84
2021/01/26 06:17:49;;;;;;;26.30;24.60;;;;;;;;;;5094904;28;20232;-83
2021/01/26 06:20:18;;;;;;;26.98;25.17;;;;;;;;;;5094739;28;20183;-84
2021/01/26 06:22:45;;;;;;;26.60;24.83;;;;;;;;;;5094989;28;20191;-84
2021/01/26 06:25:18;;;;;;;27.10;25.38;;;;;;;;;;5094594;28;20199;-84
2021/01/26 06:27:53;;;;;;;26.15;24.55;;;;;;;;;;5094894;28;20198;-84
2021/01/26 06:30:26;;;;;;;30.60;28.70;;;;;;;;;;5094895;28;20193;-83
2021/01/26 06:33:11;;;;;;;31.60;29.60;;;;;;;;;;5094485;28;20222;-82
2021/01/26 06:35:39;;;;;;;29.38;27.13;;;;;;;;;;5078336;28;20218;-82
2021/01/26 06:38:24;;;;;;;30.02;27.92;;;;;;;;;;5094176;28;20223;-82
2021/01/26 06:41:03;;;;;;;30.60;28.50;;;;;;;;;;5094696;28;20207;-83
2021/01/26 06:43:37;;;;;;;27.08;25.23;;;;;;;;;;5076167;28;20202;-82
2021/01/26 06:46:10;;;;;;;28.02;25.85;;;;;;;;;;5094158;28;20231;-83
2021/01/26 06:48:50;;;;;;;27.05;25.17;;;;;;;;;;5094421;28;20187;-82
2021/01/26 06:51:27;;;;;;;26.90;25.10;;;;;;;;;;5094333;28;20187;-83
2021/01/26 06:54:02;;;;;;;28.48;26.15;;;;;;;;;;5094062;28;20194;-83
2021/01/26 06:56:38;;;;;;;28.48;26.27;;;;;;;;;;5094010;28;20190;-83
2021/01/26 06:59:25;;;;;;;29.60;27.40;;;;;;;;;;5094077;28;20207;-83
2021/01/26 07:02:07;;;;;;;26.15;24.30;;;;;;;;;;5094609;28;20190;-82
2021/01/26 07:04:44;;;;;;;27.60;25.60;;;;;;;;;;5097488;28;20217;-82
2021/01/26 07:07:20;;;;;;;26.90;24.98;;;;;;;;;;5100345;28;20193;-82
2021/01/26 07:09:53;;;;;;;29.25;26.95;;;;;;;;;;5099471;28;20187;-82
2021/01/26 07:12:45;;;;;;;28.55;26.35;;;;;;;;;;5099713;28;20223;-82
2021/01/26 07:15:27;;;;;;;26.13;24.33;;;;;;;;;;5074927;28;20195;-83
2021/01/26 07:18:09;;;;;;;26.02;24.23;;;;;;;;;;5099116;28;20187;-82
2021/01/26 07:20:41;;;;;;;28.20;26.17;;;;;;;;;;5099236;28;20237;-82
2021/01/26 07:23:14;;;;;;;29.20;27.05;;;;;;;;;;5099058;28;20592;-83
2021/01/26 07:25:58;;;;;;;30.15;27.80;;;;;;;;;;5098266;28;20218;-81
2021/01/26 07:28:39;;;;;;;30.00;27.80;;;;;;;;;;5098453;28;20266;-83
2021/01/26 07:31:08;;;;;;;30.90;28.42;;;;;;;;;;5099432;28;20363;-82
2021/01/26 07:33:37;;;;;;;30.27;27.95;;;;;;;;;;5102291;28;20292;-82
2021/01/26 07:36:09;;;;;;;29.00;26.60;;;;;;;;;;5097903;28;20186;-83
2021/01/26 07:38:38;;;;;;;31.75;29.15;;;;;;;;;;5097397;28;20228;-82
2021/01/26 07:41:07;;;;;;;32.25;29.00;;;;;;;;;;5097650;28;20186;-82
2021/01/26 07:43:39;;;;;;;30.77;28.42;;;;;;;;;;5097796;28;20186;-83
2021/01/26 07:46:07;;;;;;;32.55;29.95;;;;;;;;;;5076160;28;20235;-83
2021/01/26 07:48:36;;;;;;;32.67;29.98;;;;;;;;;;5077188;28;20191;-82
2021/01/26 07:51:05;;;;;;;31.70;29.00;;;;;;;;;;5077131;28;20549;-82
2021/01/26 07:53:36;;;;;;;32.65;30.05;;;;;;;;;;5077272;28;20211;-82
2021/01/26 07:56:06;;;;;;;33.25;30.33;;;;;;;;;;5077794;28;20188;-82
2021/01/26 07:58:33;;;;;;;32.58;29.88;;;;;;;;;;5077243;28;20194;-82
2021/01/26 08:01:02;;;;;;;34.15;31.40;;;;;;;;;;5077877;28;20199;-82
2021/01/26 08:03:30;;;;;;;30.60;28.10;;;;;;;;;;5077307;28;20195;-82
2021/01/26 08:05:58;;;;;;;33.70;30.65;;;;;;;;;;5076876;28;20215;-82
2021/01/26 08:08:26;;;;;;;33.95;31.00;;;;;;;;;;5076778;28;20664;-81
2021/01/26 08:11:11;;;;;;;33.47;30.77;;;;;;;;;;5077122;28;20208;-82
2021/01/26 08:13:40;;;;;;;35.25;32.03;;;;;;;;;;5087609;28;20685;-82
2021/01/26 08:16:15;;;;;;;33.30;30.58;;;;;;;;;;5078549;28;20187;-82
2021/01/26 08:18:43;;;;;;;35.90;32.60;;;;;;;;;;5080952;28;20285;-80
2021/01/26 08:21:24;;;;;;;32.60;29.80;;;;;;;;;;5081085;28;20249;-82
2021/01/26 08:23:53;;;;;;;32.83;30.05;;;;;;;;;;5078517;28;20207;-81
2021/01/26 08:26:22;;;;;;;32.15;29.52;;;;;;;;;;5081440;28;20214;-85
2021/01/26 08:28:49;;;;;;;35.78;32.50;;;;;;;;;;5082802;28;20324;-82
2021/01/26 08:31:31;;;;;;;32.72;29.83;;;;;;;;;;5080310;28;20192;-82
2021/01/26 08:34:14;;;;;;;30.83;28.30;;;;;;;;;;5081917;28;20313;-83
2021/01/26 08:36:41;;;;;;;34.15;31.17;;;;;;;;;;5081306;28;20211;-82
2021/01/26 08:39:28;;;;;;;33.83;30.83;;;;;;;;;;5076101;28;20240;-82
2021/01/26 08:41:56;;;;;;;35.03;31.83;;;;;;;;;;5076239;28;20673;-83
2021/01/26 08:44:53;;;;;;;33.15;30.25;;;;;;;;;;5075178;28;20191;-82
2021/01/26 08:47:36;;;;;;;31.52;28.92;;;;;;;;;;5085381;28;20208;-82
2021/01/26 08:50:14;;;;;;;32.03;29.33;;;;;;;;;;5079751;28;20205;-81
2021/01/26 08:52:41;;;;;;;32.45;29.25;;;;;;;;;;5076462;28;20571;-82
2021/01/26 08:55:08;;;;;;;31.52;28.92;;;;;;;;;;5078511;28;20191;-81
2021/01/26 08:57:42;;;;;;;34.28;31.15;;;;;;;;;;5077970;28;20184;-82
2021/01/26 09:00:29;;;;;;;35.55;31.95;;;;;;;;;;5075615;28;20562;-81
2021/01/26 09:02:56;;;;;;;35.17;31.67;;;;;;;;;;5075622;28;20192;-81
2021/01/26 09:05:42;;;;;;;35.55;32.25;;;;;;;;;;5075837;28;20191;-82
2021/01/26 09:08:09;;;;;;;34.92;31.85;;;;;;;;;;5076733;28;20203;-82
2021/01/26 09:10:37;;;;;;;34.25;31.35;;;;;;;;;;5077140;28;20194;-83
2021/01/26 09:13:14;;;;;;;36.65;33.28;;;;;;;;;;5078329;28;20215;-86
2021/01/26 09:15:46;;;;;;;34.45;31.35;;;;;;;;;;5077832;28;20198;-83
2021/01/26 09:18:14;;;;;;;33.47;30.38;;;;;;;;;;5076225;28;20191;-82
2021/01/26 09:20:42;;;;;;;34.78;31.48;;;;;;;;;;5076191;28;20652;-81
2021/01/26 09:23:10;;;;;;;34.00;30.90;;;;;;;;;;5075394;28;20273;-78
2021/01/26 09:25:39;;;;;;;35.80;32.30;;;;;;;;;;5077134;28;20273;-81
2021/01/26 09:28:07;;;;;;;32.30;28.90;;;;;;;;;;5076411;28;20568;-82
2021/01/26 09:30:36;;;;;;;33.67;30.27;;;;;;;;;;5077457;28;20207;-80
2021/01/26 09:33:05;;;;;;;35.47;32.08;;;;;;;;;;5077298;28;20215;-96
2021/01/26 09:35:34;;;;;;;35.25;31.83;;;;;;;;;;5080464;28;20618;-84
2021/01/26 09:38:12;;;;;;;34.92;31.83;;;;;;;;;;5075499;28;20223;-84
2021/01/26 09:40:41;;;;;;;34.40;31.33;;;;;;;;;;5074866;28;20215;-76
2021/01/26 09:43:13;;;;;;;33.95;30.75;;;;;;;;;;5075004;28;20191;-84
2021/01/26 09:45:42;;;;;;;37.00;33.25;;;;;;;;;;5082071;28;20247;-81
2021/01/26 09:48:09;;;;;;;38.45;34.35;;;;;;;;;;5095556;28;20195;-84
2021/01/26 09:50:36;;;;;;;35.33;31.88;;;;;;;;;;5095685;28;20210;-82
2021/01/26 09:53:05;;;;;;;34.78;31.58;;;;;;;;;;5097185;28;20233;-82
2021/01/26 09:55:32;;;;;;;35.90;32.45;;;;;;;;;;5095511;28;20641;-80
2021/01/26 09:57:59;;;;;;;36.42;32.90;;;;;;;;;;5094821;28;20202;-89
2021/01/26 10:00:28;;;;;;;36.10;32.83;;;;;;;;;;5095639;28;20191;-83
2021/01/26 10:02:59;;;;;;;37.00;33.50;;;;;;;;;;5095748;28;20191;-86
2021/01/26 10:05:27;;;;;;;35.40;32.05;;;;;;;;;;5098297;28;20183;-85
2021/01/26 10:08:08;;;;;;;33.63;30.52;;;;;;;;;;5097262;28;20187;-84
2021/01/26 10:10:36;;;;;;;34.78;31.42;;;;;;;;;;5097526;28;20194;-85
2021/01/26 10:13:21;;;;;;;35.58;31.95;;;;;;;;;;5096743;28;20251;-85
2021/01/26 10:15:48;;;;;;;34.65;31.55;;;;;;;;;;5098016;28;20209;-84
2021/01/26 10:18:17;;;;;;;35.33;31.90;;;;;;;;;;5095131;28;20187;-85
2021/01/26 10:20:53;;;;;;;36.08;32.83;;;;;;;;;;5095307;28;20191;-85
2021/01/26 10:23:22;;;;;;;34.03;30.77;;;;;;;;;;5094695;28;20191;-85
2021/01/26 10:25:50;;;;;;;35.00;31.75;;;;;;;;;;5094967;28;20194;-85
2021/01/26 10:28:25;;;;;;;34.10;30.92;;;;;;;;;;5094715;28;20195;-85
2021/01/26 10:30:52;;;;;;;35.05;31.98;;;;;;;;;;5095423;28;20277;-85
2021/01/26 10:33:34;;;;;;;33.25;30.25;;;;;;;;;;5095441;28;20211;-83
2021/01/26 10:36:25;;;;;;;35.38;32.28;;;;;;;;;;5094525;28;20203;-89
2021/01/26 10:38:53;;;;;;;34.55;31.42;;;;;;;;;;5075166;28;20202;-84
2021/01/26 10:41:21;;;;;;;35.08;31.98;;;;;;;;;;5095732;28;20202;-84
2021/01/26 10:43:49;;;;;;;35.85;32.50;;;;;;;;;;5094653;28;20190;-84
2021/01/26 10:46:29;;;;;;;35.72;32.28;;;;;;;;;;5094172;28;20218;-85
2021/01/26 10:49:09;;;;;;;34.63;31.73;;;;;;;;;;5094170;28;20193;-83
2021/01/26 10:51:38;;;;;;;35.67;32.33;;;;;;;;;;5094318;28;20183;-84
2021/01/26 10:54:06;;;;;;;36.90;33.47;;;;;;;;;;5094327;28;20226;-85
2021/01/26 10:56:33;;;;;;;36.33;32.65;;;;;;;;;;5094328;28;20660;-85
2021/01/26 10:59:00;;;;;;;37.90;34.33;;;;;;;;;;5094444;28;20198;-84
2021/01/26 11:01:27;;;;;;;34.83;31.50;;;;;;;;;;5093191;28;20187;-84
2021/01/26 11:03:55;;;;;;;39.00;35.70;;;;;;;;;;5094746;28;20206;-84
2021/01/26 11:06:24;;;;;;;32.85;29.58;;;;;;;;;;5093966;28;20192;-83
2021/01/26 11:08:51;;;;;;;35.33;32.03;;;;;;;;;;5094365;28;20666;-84
2021/01/26 11:11:19;;;;;;;35.97;32.67;;;;;;;;;;5094054;28;20544;-83
2021/01/26 11:13:47;;;;;;;35.17;31.80;;;;;;;;;;5095978;28;20243;-84
2021/01/26 11:16:14;;;;;;;36.42;33.17;;;;;;;;;;5096100;28;20202;-84
2021/01/26 11:18:41;;;;;;;36.05;32.90;;;;;;;;;;5095570;28;20221;-84
2021/01/26 11:21:08;;;;;;;36.47;33.08;;;;;;;;;;5094547;28;20241;-84
2021/01/26 11:23:36;;;;;;;34.65;31.42;;;;;;;;;;5095668;28;20191;-85
2021/01/26 11:26:03;;;;;;;36.33;32.85;;;;;;;;;;5094435;28;20198;-83
2021/01/26 11:28:30;;;;;;;36.40;32.90;;;;;;;;;;5094197;28;20217;-85
2021/01/26 11:30:58;;;;;;;31.92;29.00;;;;;;;;;;5094023;28;20183;-85
2021/01/26 11:33:25;;;;;;;35.58;32.28;;;;;;;;;;5094768;28;20233;-85
2021/01/26 11:35:51;;;;;;;35.55;32.20;;;;;;;;;;5094958;28;20207;-85
2021/01/26 11:38:19;;;;;;;38.30;34.42;;;;;;;;;;5095221;28;20229;-84
2021/01/26 11:40:47;;;;;;;37.65;34.05;;;;;;;;;;5094321;28;20202;-84
2021/01/26 11:43:14;;;;;;;36.75;33.35;;;;;;;;;;5094026;28;20209;-84
2021/01/26 11:45:42;;;;;;;35.28;32.08;;;;;;;;;;5093618;28;20239;-85
2021/01/26 11:48:11;;;;;;;36.13;32.90;;;;;;;;;;5095031;28;20195;-84
2021/01/26 11:50:39;;;;;;;35.35;32.15;;;;;;;;;;5094816;28;20611;-84
2021/01/26 11:53:06;;;;;;;35.83;32.60;;;;;;;;;;5095273;28;20219;-90
2021/01/26 11:55:34;;;;;;;35.75;32.50;;;;;;;;;;5095825;28;20569;-86
2021/01/26 11:58:02;;;;;;;36.50;33.15;;;;;;;;;;5095129;28;20241;-83
2021/01/26 12:00:30;;;;;;;36.33;33.05;;;;;;;;;;5094967;28;20195;-83
2021/01/26 12:02:57;;;;;;;34.72;31.65;;;;;;;;;;5095470;28;20253;-83
2021/01/26 12:05:25;;;;;;;35.28;32.22;;;;;;;;;;5093817;28;20192;-83
2021/01/26 12:07:52;;;;;;;35.72;32.22;;;;;;;;;;5093551;28;20188;-84
2021/01/26 12:10:19;;;;;;;34.22;31.33;;;;;;;;;;5093710;28;20190;-83
2021/01/26 12:12:46;;;;;;;33.50;30.60;;;;;;;;;;5093536;28;20745;-83
2021/01/26 12:15:16;;;;;;;34.47;31.33;;;;;;;;;;5093400;28;20187;-83
2021/01/26 12:17:43;;;;;;;36.78;33.50;;;;;;;;;;5094996;28;20268;-83
2021/01/26 12:20:10;;;;;;;35.78;32.58;;;;;;;;;;5102042;28;20228;-83
2021/01/26 12:22:37;;;;;;;33.83;31.02;;;;;;;;;;5111572;28;20235;-83
2021/01/26 12:25:04;;;;;;;32.15;29.40;;;;;;;;;;5118832;28;20191;-84
2021/01/26 12:27:31;;;;;;;34.20;31.30;;;;;;;;;;5097557;28;20191;-86
2021/01/26 12:29:58;;;;;;;34.28;31.38;;;;;;;;;;5102096;28;20288;-84
2021/01/26 12:32:26;;;;;;;32.65;29.95;;;;;;;;;;5100426;28;20277;-84
2021/01/26 12:34:59;;;;;;;32.20;29.63;;;;;;;;;;5101304;28;20199;-85
2021/01/26 12:37:26;;;;;;;32.83;30.15;;;;;;;;;;5100052;28;20246;-83
2021/01/26 12:39:53;;;;;;;32.42;29.73;;;;;;;;;;5102828;28;20592;-81
2021/01/26 12:42:20;;;;;;;33.13;30.27;;;;;;;;;;5100920;28;20187;-84
2021/01/26 12:44:47;;;;;;;30.45;27.88;;;;;;;;;;5100338;28;20202;-83
2021/01/26 12:47:14;;;;;;;32.60;29.90;;;;;;;;;;5099668;28;20195;-83
2021/01/26 12:49:42;;;;;;;30.80;28.30;;;;;;;;;;5098572;28;20244;-81
2021/01/26 12:52:09;;;;;;;31.98;29.17;;;;;;;;;;5096778;28;20263;-80
2021/01/26 12:54:35;;;;;;;30.95;28.55;;;;;;;;;;5096316;28;20191;-77
2021/01/26 12:57:02;;;;;;;32.75;30.00;;;;;;;;;;5096221;28;20232;-78
2021/01/26 12:59:29;;;;;;;32.28;29.77;;;;;;;;;;5095677;28;20223;-83
2021/01/26 13:01:56;;;;;;;31.05;28.48;;;;;;;;;;5096718;28;20543;-77
2021/01/26 13:04:23;;;;;;;32.05;29.50;;;;;;;;;;5095937;28;20195;-77
2021/01/26 13:06:51;;;;;;;30.15;27.55;;;;;;;;;;5096143;28;20192;-78
2021/01/26 13:09:17;;;;;;;30.17;27.73;;;;;;;;;;5095972;28;20195;-79
2021/01/26 13:11:45;;;;;;;31.70;29.13;;;;;;;;;;5095982;28;20203;-79
2021/01/26 13:16:53;;;;;;;29.60;27.38;;;;;;;;;;5098843;28;20227;-82
2021/01/26 13:19:31;;;;;;;30.02;27.63;;;;;;;;;;5108849;28;20172;-83
2021/01/26 13:21:59;;;;;;;31.13;28.83;;;;;;;;;;5102126;28;20203;-83
2021/01/26 13:24:26;;;;;;;31.58;28.90;;;;;;;;;;5096872;28;20535;-84
2021/01/26 13:26:53;;;;;;;31.88;29.27;;;;;;;;;;5096587;28;20210;-81
2021/01/26 13:29:20;;;;;;;31.75;28.85;;;;;;;;;;5095161;28;20524;-82
2021/01/26 13:31:47;;;;;;;31.20;28.80;;;;;;;;;;5097625;28;20203;-82
2021/01/26 13:34:14;;;;;;;29.55;27.05;;;;;;;;;;5097767;28;20222;-82
2021/01/26 13:36:40;;;;;;;30.45;27.95;;;;;;;;;;5095285;28;20602;-82
2021/01/26 13:39:08;;;;;;;31.92;29.33;;;;;;;;;;5095405;28;20191;-84
2021/01/26 13:41:36;;;;;;;30.00;27.40;;;;;;;;;;5095494;28;20552;-78
2021/01/26 13:44:03;;;;;;;31.30;28.70;;;;;;;;;;5095731;28;20206;-76
2021/01/26 13:46:30;;;;;;;32.00;29.40;;;;;;;;;;5094759;28;20622;-76
2021/01/26 13:48:57;;;;;;;29.58;27.38;;;;;;;;;;5095024;28;20194;-76
2021/01/26 13:51:23;;;;;;;31.50;28.95;;;;;;;;;;5095220;28;20207;-76
2021/01/26 13:53:50;;;;;;;30.90;28.40;;;;;;;;;;5094775;28;20238;-76
2021/01/26 13:56:20;;;;;;;31.13;28.52;;;;;;;;;;5095689;28;20520;-77
2021/01/26 13:58:49;;;;;;;29.45;26.95;;;;;;;;;;5097915;28;20218;-83
2021/01/26 14:01:18;;;;;;;31.10;28.60;;;;;;;;;;5105003;28;20176;-85
2021/01/26 14:03:55;;;;;;;30.50;28.00;;;;;;;;;;5101923;28;20192;-85
2021/01/26 14:06:25;;;;;;;30.63;28.13;;;;;;;;;;5102725;28;20200;-86
2021/01/26 14:08:53;;;;;;;29.60;27.30;;;;;;;;;;5100253;28;20192;-88
2021/01/26 14:11:21;;;;;;;31.58;28.88;;;;;;;;;;5098232;28;20213;-85
2021/01/26 14:13:48;;;;;;;30.77;28.30;;;;;;;;;;5098026;28;20216;-84
2021/01/26 14:16:15;;;;;;;30.00;27.45;;;;;;;;;;5097344;28;20213;-84
2021/01/26 14:18:43;;;;;;;31.85;29.20;;;;;;;;;;5096254;28;20223;-79
2021/01/26 14:21:10;;;;;;;31.98;29.38;;;;;;;;;;5096616;28;20696;-79
2021/01/26 14:23:37;;;;;;;31.50;28.88;;;;;;;;;;5097570;28;20190;-79
2021/01/26 14:26:06;;;;;;;30.48;27.92;;;;;;;;;;5099007;28;20248;-83
2021/01/26 14:28:35;;;;;;;29.73;27.52;;;;;;;;;;5101491;28;20217;-82
2021/01/26 14:31:04;;;;;;;29.92;27.35;;;;;;;;;;5097548;28;20218;-82
2021/01/26 14:33:32;;;;;;;30.75;28.27;;;;;;;;;;5107622;28;20228;-82
2021/01/26 14:35:59;;;;;;;30.48;28.17;;;;;;;;;;5102350;28;20565;-81
2021/01/26 14:38:26;;;;;;;30.35;27.95;;;;;;;;;;5104927;28;20189;-83